Time;durP1;ratioP1;P1;durP2;ratioP2;P2;SDS_P1;SDS_P2;PMS_P1;PMS_P2;Temp;Humidity;BMP_temperature;BMP_pressure;BME280_temperature;BME280_humidity;BME280_pressure;Samples;Min_cycle;Max_cycle;Signal;HPM_P1;HPM_P2
2023/04/27 06:11:46;;;;;;;6.30;2.72;;;20.50;58.90;;;;;;4925461;28;90554;-91
2023/04/27 06:14:12;;;;;;;5.57;2.50;;;20.50;59.20;;;;;;4937306;28;90471;-90
2023/04/27 06:16:39;;;;;;;6.15;2.70;;;20.50;59.20;;;;;;4952418;28;87585;-91
2023/04/27 06:19:05;;;;;;;4.35;2.75;;;20.50;59.40;;;;;;4952590;28;89175;-89
2023/04/27 06:21:34;;;;;;;5.15;3.05;;;20.40;59.30;;;;;;4953082;28;88655;-91
2023/04/27 06:24:01;;;;;;;3.45;2.78;;;20.50;59.40;;;;;;4953328;28;91974;-91
2023/04/27 06:26:27;;;;;;;7.40;2.70;;;20.50;59.50;;;;;;4938522;28;88178;-89
2023/04/27 06:28:56;;;;;;;3.75;2.63;;;20.60;59.20;;;;;;4935507;28;88878;-90
2023/04/27 06:31:22;;;;;;;;;;;20.70;59.20;;;;;;4953854;28;91307;-91
2023/04/27 06:33:48;;;;;;;3.28;2.40;;;20.70;59.40;;;;;;4950931;28;90977;-91
2023/04/27 06:36:13;;;;;;;3.53;2.55;;;20.70;59.50;;;;;;4951358;28;87005;-91
2023/04/27 06:38:39;;;;;;;5.22;2.42;;;20.70;59.30;;;;;;4951104;28;90892;-92
2023/04/27 06:41:05;;;;;;;3.50;2.53;;;20.70;59.40;;;;;;4951289;28;91482;-88
2023/04/27 06:43:31;;;;;;;3.30;2.33;;;20.70;59.40;;;;;;4954674;28;91030;-89
2023/04/27 06:45:56;;;;;;;3.05;2.22;;;20.80;59.40;;;;;;4938311;28;86949;-88
2023/04/27 06:48:22;;;;;;;2.97;2.50;;;20.70;59.30;;;;;;4931548;28;88043;-88
2023/04/27 06:50:48;;;;;;;7.80;2.63;;;20.80;59.20;;;;;;4929850;28;89436;-89
2023/04/27 06:53:15;;;;;;;3.95;2.58;;;20.80;59.30;;;;;;4931834;28;90099;-86
2023/04/27 06:55:42;;;;;;;3.83;2.03;;;20.80;59.40;;;;;;4932411;28;87067;-89
2023/04/27 06:58:07;;;;;;;2.70;2.10;;;20.80;59.50;;;;;;4932186;28;90135;-88
2023/04/27 07:00:34;;;;;;;3.40;2.47;;;20.80;59.00;;;;;;4920872;28;89446;-90
2023/04/27 07:02:59;;;;;;;3.00;2.25;;;20.80;59.40;;;;;;4905463;28;91380;-91
2023/04/27 07:05:26;;;;;;;2.40;1.95;;;20.80;59.50;;;;;;4904344;28;87243;-90
2023/04/27 07:07:52;;;;;;;2.75;2.30;;;20.80;59.50;;;;;;4919873;28;86694;-88
2023/04/27 07:10:18;;;;;;;4.35;2.47;;;20.80;59.60;;;;;;4921100;28;90627;-89
2023/04/27 07:12:43;;;;;;;4.90;2.47;;;20.80;59.70;;;;;;4905823;28;89437;-88
2023/04/27 07:15:09;;;;;;;4.47;2.70;;;20.80;59.70;;;;;;4906411;28;88008;-90
2023/04/27 07:17:35;;;;;;;3.42;2.53;;;20.80;59.60;;;;;;4909379;28;90235;-89
2023/04/27 07:20:10;;;;;;;9.10;2.72;;;20.80;59.60;;;;;;4934001;28;90484;-88
2023/04/27 07:22:36;;;;;;;5.05;3.15;;;20.80;59.60;;;;;;4922069;28;90073;-90
2023/04/27 07:25:02;;;;;;;9.65;3.08;;;20.80;59.60;;;;;;4940804;28;87434;-89
2023/04/27 07:27:28;;;;;;;11.63;3.15;;;20.80;58.80;;;;;;4931605;28;89471;-92
2023/04/27 07:29:54;;;;;;;6.53;3.38;;;20.80;59.10;;;;;;4940239;28;91286;-87
2023/04/27 07:32:20;;;;;;;4.88;3.17;;;20.80;59.20;;;;;;4946124;28;91098;-90
2023/04/27 07:34:47;;;;;;;8.13;3.30;;;20.80;59.20;;;;;;4952749;28;87151;-92
2023/04/27 07:37:13;;;;;;;3.55;2.78;;;20.80;59.40;;;;;;4954088;28;89186;-89
2023/04/27 07:39:38;;;;;;;10.40;3.20;;;20.80;59.20;;;;;;4944582;28;92223;-89
2023/04/27 07:42:04;;;;;;;7.68;3.42;;;20.90;58.80;;;;;;4954560;28;91202;-88
2023/04/27 07:44:30;;;;;;;9.27;3.85;;;20.90;58.70;;;;;;4954704;28;86982;-89
2023/04/27 07:46:57;;;;;;;7.32;3.55;;;20.90;58.70;;;;;;4953300;28;89148;-87
2023/04/27 07:49:24;;;;;;;7.63;3.20;;;20.90;58.80;;;;;;4955219;28;90496;-89
2023/04/27 07:51:50;;;;;;;7.25;3.08;;;20.90;59.00;;;;;;4954016;28;91195;-87
2023/04/27 07:54:15;;;;;;;7.68;3.08;;;20.90;58.40;;;;;;4951433;28;87050;-88
2023/04/27 07:56:42;;;;;;;9.73;3.40;;;20.90;58.80;;;;;;4955117;28;90416;-89
2023/04/27 07:59:07;;;;;;;10.88;4.10;;;20.90;59.00;;;;;;4953049;28;91027;-89
2023/04/27 08:01:33;;;;;;;6.03;3.47;;;20.90;58.90;;;;;;4954188;28;90778;-90
2023/04/27 08:03:59;;;;;;;10.38;3.70;;;20.90;59.10;;;;;;4954844;28;88503;-87
2023/04/27 08:06:24;;;;;;;9.77;3.83;;;21.00;59.20;;;;;;4952745;28;89643;-89
2023/04/27 08:08:50;;;;;;;8.18;3.85;;;20.90;59.90;;;;;;4950771;28;90406;-89
2023/04/27 08:11:16;;;;;;;7.80;3.88;;;21.00;59.40;;;;;;4952570;28;89458;-92
2023/04/27 08:13:41;;;;;;;17.52;5.80;;;21.00;59.20;;;;;;4953903;28;86908;-90
2023/04/27 08:16:07;;;;;;;18.05;5.65;;;21.10;59.60;;;;;;4913325;28;89143;-89
2023/04/27 08:18:33;;;;;;;16.33;5.65;;;21.20;59.70;;;;;;4896382;28;91112;-89
2023/04/27 08:20:59;;;;;;;31.90;10.48;;;21.30;59.70;;;;;;4914964;28;88611;-89
2023/04/27 08:23:28;;;;;;;43.63;12.93;;;21.30;59.70;;;;;;4912482;28;87352;-88
2023/04/27 08:25:53;;;;;;;32.10;10.98;;;21.30;59.30;;;;;;4910569;28;89606;-89
2023/04/27 08:28:19;;;;;;;34.55;11.65;;;21.30;59.50;;;;;;4912058;28;91595;-88
2023/04/27 08:30:45;;;;;;;41.58;15.32;;;21.30;59.00;;;;;;4912699;28;90855;-89
2023/04/27 08:33:12;;;;;;;46.33;14.10;;;21.20;59.20;;;;;;4905145;28;87149;-92
2023/04/27 08:35:38;;;;;;;47.25;15.25;;;21.20;59.20;;;;;;4913314;28;87481;-90
2023/04/27 08:38:04;;;;;;;39.08;15.07;;;21.20;59.40;;;;;;4912837;28;90087;-90
2023/04/27 08:40:30;;;;;;;39.65;15.52;;;21.30;59.10;;;;;;4912983;28;90210;-91
2023/04/27 08:42:57;;;;;;;48.75;15.63;;;21.30;59.00;;;;;;4904387;28;87112;-88
2023/04/27 08:45:24;;;;;;;39.17;15.05;;;21.20;59.20;;;;;;4912520;28;89228;-88
2023/04/27 08:47:51;;;;;;;36.47;14.10;;;21.20;59.10;;;;;;4938478;28;89035;-92
2023/04/27 08:50:17;;;;;;;33.35;13.20;;;21.20;58.70;;;;;;4940067;28;91123;-91
2023/04/27 08:52:44;;;;;;;46.35;15.60;;;21.20;58.40;;;;;;4952004;28;88131;-90
2023/04/27 08:55:11;;;;;;;35.17;13.25;;;21.30;58.40;;;;;;4953284;28;88712;-89
2023/04/27 08:57:36;;;;;;;33.05;14.32;;;21.30;58.00;;;;;;4951581;28;90857;-89
2023/04/27 09:00:11;;;;;;;40.15;14.85;;;21.30;58.40;;;;;;4953427;28;88284;-88
2023/04/27 09:02:43;;;;;;;43.90;14.88;;;21.30;58.40;;;;;;4952110;28;86816;-89
2023/04/27 09:05:15;;;;;;;34.90;14.10;;;21.30;58.50;;;;;;4951595;28;90296;-88
2023/04/27 09:07:40;;;;;;;39.35;14.60;;;21.30;58.20;;;;;;4951644;28;92404;-89
2023/04/27 09:10:07;;;;;;;37.22;13.15;;;21.50;57.90;;;;;;4954549;28;90011;-88
2023/04/27 09:12:32;;;;;;;30.48;11.15;;;21.50;57.50;;;;;;4951949;28;87705;-90
2023/04/27 09:15:01;;;;;;;34.65;11.90;;;21.60;56.50;;;;;;4954111;28;87675;-88
2023/04/27 09:17:27;;;;;;;32.13;13.40;;;21.60;56.50;;;;;;4951415;28;92208;-90
2023/04/27 09:20:07;;;;;;;35.63;12.68;;;21.60;56.90;;;;;;4951221;28;91773;-87
2023/04/27 09:22:45;;;;;;;26.50;12.43;;;21.50;57.20;;;;;;4953399;28;86958;-85
2023/04/27 09:25:31;;;;;;;25.38;10.65;;;21.60;57.50;;;;;;4953175;28;87534;-91
2023/04/27 09:27:58;;;;;;;28.50;11.48;;;21.60;57.40;;;;;;4951302;28;95741;-89
2023/04/27 09:30:25;;;;;;;28.67;10.98;;;21.60;57.60;;;;;;4953864;28;88610;-88
2023/04/27 09:32:55;;;;;;;29.20;11.70;;;21.60;57.70;;;;;;4951280;28;87267;-88
2023/04/27 09:35:28;;;;;;;25.98;10.85;;;21.60;57.70;;;;;;4952086;28;87028;-90
2023/04/27 09:37:55;;;;;;;27.40;11.07;;;21.60;58.50;;;;;;4949503;28;91527;-87
2023/04/27 09:40:33;;;;;;;24.88;10.55;;;21.50;58.70;;;;;;4952447;28;87764;-88
2023/04/27 09:43:00;;;;;;;28.15;10.82;;;21.50;59.60;;;;;;4936920;28;89472;-88
2023/04/27 09:45:26;;;;;;;25.45;11.70;;;21.50;60.20;;;;;;4934227;28;89988;-88
2023/04/27 09:47:52;;;;;;;21.65;9.95;;;21.60;65.10;;;;;;4952916;28;88470;-88
2023/04/27 09:50:19;;;;;;;19.60;10.55;;;21.60;69.20;;;;;;4951271;28;90585;-90
2023/04/27 09:52:45;;;;;;;17.50;9.98;;;21.50;59.00;;;;;;4951178;28;87688;-88
2023/04/27 09:55:16;;;;;;;16.23;8.50;;;21.40;51.80;;;;;;4951722;28;88275;-93
2023/04/27 09:57:50;;;;;;;12.05;7.88;;;21.30;47.50;;;;;;4951497;28;90646;-88
2023/04/27 10:00:23;;;;;;;12.60;8.13;;;21.10;44.90;;;;;;4942669;28;90703;-89
2023/04/27 10:02:54;;;;;;;11.63;7.18;;;21.10;43.40;;;;;;4953185;28;87440;-89
2023/04/27 10:05:32;;;;;;;8.55;6.38;;;21.00;41.50;;;;;;4949543;28;89128;-91
2023/04/27 10:07:58;;;;;;;11.55;6.55;;;20.90;39.80;;;;;;4952711;28;91114;-90
2023/04/27 10:10:24;;;;;;;11.68;6.38;;;20.90;39.10;;;;;;4953506;28;91100;-89
2023/04/27 10:13:25;;;;;;;10.23;6.10;;;20.90;38.30;;;;;;4952086;28;87332;-90
2023/04/27 10:15:52;;;;;;;11.00;6.18;;;20.80;38.00;;;;;;4902409;28;87635;-87
2023/04/27 10:18:29;;;;;;;11.52;6.03;;;20.90;37.80;;;;;;4886102;28;90429;-88
2023/04/27 10:20:56;;;;;;;8.73;5.85;;;20.90;38.40;;;;;;4902965;28;88724;-88
2023/04/27 10:23:25;;;;;;;13.18;5.35;;;20.80;40.50;;;;;;4903452;28;87049;-88
2023/04/27 10:25:52;;;;;;;;;;;20.80;43.70;;;;;;4884072;28;88980;-87
2023/04/27 10:28:17;;;;;;;10.45;6.10;;;20.80;47.40;;;;;;4903769;28;87740;-86
2023/04/27 10:30:45;;;;;;;10.07;6.43;;;20.80;50.80;;;;;;4902711;28;87837;-89
2023/04/27 10:33:16;;;;;;;13.85;6.07;;;20.80;46.70;;;;;;4900912;28;89252;-87
2023/04/27 10:35:53;;;;;;;10.90;5.30;;;20.70;43.60;;;;;;4877300;28;90560;-91
2023/04/27 10:38:26;;;;;;;10.00;6.30;;;20.80;44.70;;;;;;4877738;28;91349;-91
2023/04/27 10:41:04;;;;;;;9.23;5.63;;;20.90;43.40;;;;;;4892289;28;89987;-94
2023/04/27 10:43:34;;;;;;;9.43;5.50;;;20.80;45.00;;;;;;4886268;28;87415;-90
2023/04/27 10:46:10;;;;;;;11.40;5.72;;;20.80;43.00;;;;;;4901790;28;95258;-91
2023/04/27 10:48:40;;;;;;;11.13;5.90;;;20.90;42.30;;;;;;4885171;28;90451;-90
2023/04/27 10:51:06;;;;;;;11.85;5.85;;;20.80;41.90;;;;;;4891239;28;90053;-88
2023/04/27 10:53:38;;;;;;;10.90;5.32;;;20.80;42.60;;;;;;4931642;28;87539;-88
2023/04/27 10:56:05;;;;;;;11.65;5.57;;;20.80;42.00;;;;;;4952965;28;90223;-90
2023/04/27 10:58:32;;;;;;;7.00;4.40;;;20.80;42.80;;;;;;4951022;28;92367;-90
2023/04/27 11:00:58;;;;;;;7.95;4.45;;;20.90;46.60;;;;;;4953099;28;95087;-88
2023/04/27 11:03:24;;;;;;;12.63;4.97;;;21.00;47.30;;;;;;4954101;28;87345;-88
2023/04/27 11:06:00;;;;;;;8.73;4.40;;;21.00;47.30;;;;;;4949570;28;90148;-90
2023/04/27 11:11:49;;;;;;;12.18;4.45;;;21.00;47.90;;;;;;4952447;28;86941;-89
2023/04/27 11:14:20;;;;;;;12.50;4.60;;;21.00;48.20;;;;;;4953340;28;87143;-89
2023/04/27 11:16:47;;;;;;;7.00;4.70;;;21.00;48.60;;;;;;4944431;28;88308;-91
2023/04/27 11:19:12;;;;;;;8.50;4.82;;;21.00;48.60;;;;;;4934721;28;90836;-89
2023/04/27 11:21:38;;;;;;;10.82;4.53;;;21.00;49.00;;;;;;4951688;28;89559;-89
2023/04/27 11:24:24;;;;;;;8.93;3.95;;;21.00;50.10;;;;;;4929356;28;88798;-92
2023/04/27 11:26:52;;;;;;;10.95;4.85;;;21.00;50.00;;;;;;4923453;28;89906;-93
2023/04/27 11:29:18;;;;;;;10.03;5.37;;;21.00;50.60;;;;;;4922769;28;91317;-90
2023/04/27 11:31:50;;;;;;;11.20;4.60;;;21.10;49.80;;;;;;5137459;23;91228;-92
2023/04/27 11:34:23;;;;;;;12.20;4.60;;;20.90;50.90;;;;;;4945598;28;87316;-89
2023/04/27 11:37:02;;;;;;;8.80;4.68;;;21.00;50.60;;;;;;4954964;28;89416;-92
2023/04/27 11:39:31;;;;;;;9.27;4.50;;;21.00;50.70;;;;;;4957607;23;91150;-90
2023/04/27 11:42:12;;;;;;;10.02;4.80;;;20.90;49.10;;;;;;4922497;28;88395;-92
2023/04/27 11:44:39;;;;;;;7.93;4.32;;;21.00;49.20;;;;;;4923148;28;86922;-86
2023/04/27 11:47:07;;;;;;;8.77;4.10;;;20.90;49.90;;;;;;4920587;28;88799;-91
2023/04/27 11:49:33;;;;;;;15.80;4.88;;;21.00;49.60;;;;;;4922771;28;89205;-89
2023/04/27 11:51:59;;;;;;;13.32;4.00;;;21.00;49.10;;;;;;4937544;28;90899;-89
2023/04/27 11:54:28;;;;;;;11.65;4.82;;;21.00;49.90;;;;;;4937380;28;87088;-89
2023/04/27 12:02:02;;;;;;;8.50;4.25;;;21.20;49.60;;;;;;4913494;28;87491;-90
2023/04/27 12:04:29;;;;;;;7.72;3.88;;;21.10;49.80;;;;;;4931966;28;87679;-88
2023/04/27 12:07:18;;;;;;;7.22;3.60;;;21.20;49.60;;;;;;4915591;28;87961;-89
2023/04/27 12:09:44;;;;;;;12.38;4.93;;;21.20;49.80;;;;;;4921524;28;89914;-91
2023/04/27 12:12:17;;;;;;;6.95;3.88;;;21.20;50.10;;;;;;4948751;28;90548;-89
2023/04/27 12:14:45;;;;;;;10.30;4.97;;;21.10;50.30;;;;;;4947884;28;88264;-90
2023/04/27 12:17:16;;;;;;;7.82;3.97;;;21.10;50.40;;;;;;4921082;28;88921;-88
2023/04/27 12:19:45;;;;;;;7.72;4.57;;;21.10;50.60;;;;;;4930733;28;89834;-87
2023/04/27 12:22:11;;;;;;;7.05;3.78;;;21.10;50.50;;;;;;4939357;28;89592;-90
2023/04/27 12:24:39;;;;;;;10.02;4.90;;;21.00;51.00;;;;;;4955205;28;88334;-90
2023/04/27 12:27:06;;;;;;;5.10;3.28;;;21.10;51.20;;;;;;4947554;28;88797;-88
2023/04/27 12:29:32;;;;;;;6.70;4.00;;;21.00;51.20;;;;;;4943412;28;91094;-88
2023/04/27 12:32:01;;;;;;;8.90;4.22;;;21.00;51.40;;;;;;4942458;28;90004;-88
2023/04/27 12:34:27;;;;;;;6.25;3.78;;;21.10;51.60;;;;;;4946472;28;87373;-88
2023/04/27 12:36:53;;;;;;;12.68;4.07;;;21.10;51.40;;;;;;4948210;28;88409;-92
2023/04/27 12:39:27;;;;;;;8.30;4.75;;;21.10;51.40;;;;;;4947076;28;90762;-88
2023/04/27 12:41:57;;;;;;;8.13;3.90;;;21.10;51.50;;;;;;4944628;28;92356;-91
2023/04/27 12:44:23;;;;;;;6.63;3.42;;;21.00;51.60;;;;;;4946820;28;87358;-92
2023/04/27 12:46:51;;;;;;;7.13;3.53;;;21.00;51.80;;;;;;4928725;28;88400;-91
2023/04/27 12:49:37;;;;;;;7.75;3.97;;;21.00;52.00;;;;;;4944445;28;90484;-86
2023/04/27 12:52:03;;;;;;;8.25;3.88;;;21.00;52.20;;;;;;4944386;28;90837;-87
2023/04/27 12:54:31;;;;;;;7.85;4.05;;;21.00;52.30;;;;;;4929504;28;87516;-90
2023/04/27 12:57:04;;;;;;;6.80;3.83;;;21.00;52.60;;;;;;4947309;28;88553;-93
2023/04/27 12:59:33;;;;;;;6.93;3.72;;;21.00;52.60;;;;;;4938340;28;89126;-89
2023/04/27 13:02:00;;;;;;;5.15;3.47;;;21.00;52.70;;;;;;4929816;28;90528;-90
2023/04/27 13:04:27;;;;;;;6.95;3.65;;;21.00;52.70;;;;;;4947406;28;88454;-89
2023/04/27 13:06:52;;;;;;;6.65;3.63;;;21.00;52.70;;;;;;4931288;28;87699;-89
2023/04/27 13:09:18;;;;;;;6.22;3.67;;;21.10;52.70;;;;;;4930609;28;90352;-89
2023/04/27 13:11:44;;;;;;;5.45;3.70;;;21.10;52.70;;;;;;4946498;28;90032;-90
2023/04/27 13:14:12;;;;;;;6.75;3.60;;;21.20;52.60;;;;;;4944882;28;87631;-91
2023/04/27 13:16:48;;;;;;;5.68;3.60;;;21.20;52.60;;;;;;4929250;28;87988;-90
2023/04/27 13:19:14;;;;;;;8.48;3.05;;;21.30;52.60;;;;;;4944925;28;90356;-89
2023/04/27 13:21:40;;;;;;;4.85;3.10;;;21.30;52.70;;;;;;4930776;28;88877;-90
2023/04/27 13:24:10;;;;;;;4.45;3.10;;;21.30;52.90;;;;;;4947843;28;87628;-88
2023/04/27 13:44:43;;;;;;;7.63;4.13;;;21.50;51.90;;;;;;5890067;23;88516;-93
2023/04/27 13:47:09;;;;;;;6.55;3.13;;;21.40;51.10;;;;;;4945061;28;87338;-93
2023/04/27 13:49:36;;;;;;;6.40;3.83;;;21.70;47.90;;;;;;4945924;28;88571;-90
2023/04/27 13:52:01;;;;;;;5.60;3.00;;;21.80;47.90;;;;;;4934829;28;91370;-90
2023/04/27 13:54:27;;;;;;;6.63;3.80;;;21.90;46.80;;;;;;4927201;28;87910;-91
2023/04/27 13:56:53;;;;;;;8.63;3.55;;;22.00;46.50;;;;;;4927825;28;90427;-91
2023/04/27 13:59:20;;;;;;;6.07;3.63;;;22.00;46.80;;;;;;4926213;28;90748;-90
2023/04/27 14:01:46;;;;;;;16.80;6.05;;;21.80;48.10;;;;;;4924609;28;90185;-91
2023/04/27 14:04:11;;;;;;;12.52;6.85;;;21.70;48.70;;;;;;4925248;28;87355;-93
2023/04/27 14:06:37;;;;;;;19.00;6.80;;;21.70;48.10;;;;;;4927485;28;89977;-93
2023/04/27 14:09:03;;;;;;;13.52;6.22;;;21.60;48.90;;;;;;4943720;28;90484;-95
2023/04/27 14:11:32;;;;;;;19.75;6.57;;;21.60;49.30;;;;;;4931359;28;88693;-94
2023/04/27 14:41:24;;;;;;;8.93;4.43;;;21.70;51.20;;;;;;4938613;28;87175;-91
2023/04/27 14:43:49;;;;;;;10.82;4.50;;;21.80;52.00;;;;;;4924489;28;90477;-88
2023/04/27 14:46:18;;;;;;;7.03;4.75;;;21.90;52.30;;;;;;4941654;28;89174;-89
2023/04/27 14:48:45;;;;;;;10.18;4.45;;;22.10;53.20;;;;;;4940625;28;87544;-89
2023/04/27 14:51:12;;;;;;;9.18;3.72;;;22.20;52.40;;;;;;4931350;28;88057;-88
2023/04/27 14:53:37;;;;;;;9.27;4.93;;;22.30;52.50;;;;;;4940585;28;87582;-90
2023/04/27 14:56:03;;;;;;;12.25;4.50;;;22.30;52.50;;;;;;4936225;28;89293;-89
2023/04/27 14:58:31;;;;;;;13.25;5.07;;;22.30;52.60;;;;;;4923703;28;90104;-90
2023/04/27 15:00:57;;;;;;;9.80;3.90;;;22.30;52.60;;;;;;4941598;28;88110;-88
2023/04/27 15:03:23;;;;;;;9.82;4.38;;;22.40;52.50;;;;;;4940689;28;87762;-92
2023/04/27 15:05:50;;;;;;;7.85;4.53;;;22.30;53.40;;;;;;4924283;28;90009;-89
2023/04/27 15:08:16;;;;;;;13.75;5.50;;;22.30;51.60;;;;;;4924644;28;90074;-92
2023/04/27 15:10:41;;;;;;;14.30;6.82;;;22.20;51.40;;;;;;4924479;28;87591;-91
2023/04/27 15:13:07;;;;;;;12.63;5.05;;;22.20;51.30;;;;;;4923796;28;90233;-92
2023/04/27 15:15:33;;;;;;;11.57;5.38;;;22.20;51.40;;;;;;4912801;28;92463;-90
2023/04/27 15:17:58;;;;;;;8.27;5.60;;;22.10;50.90;;;;;;4941118;28;90633;-92
2023/04/27 15:20:24;;;;;;;10.00;5.28;;;22.10;51.10;;;;;;4925426;28;87514;-94
2023/04/27 15:22:50;;;;;;;10.77;5.00;;;22.10;51.60;;;;;;4925604;28;89080;-93
2023/04/27 15:25:15;;;;;;;7.95;4.55;;;22.10;51.80;;;;;;4922520;28;90084;-95
2023/04/27 15:27:41;;;;;;;11.93;4.75;;;22.10;52.10;;;;;;4941908;28;91387;-94
2023/04/27 15:30:07;;;;;;;15.32;5.18;;;22.20;52.40;;;;;;4939474;28;86806;-94
2023/04/27 15:32:33;;;;;;;11.55;5.13;;;22.10;53.20;;;;;;4924292;28;90114;-95
2023/04/27 15:34:59;;;;;;;9.38;4.70;;;22.10;53.30;;;;;;4926363;28;90565;-94
2023/04/27 15:37:29;;;;;;;15.45;5.35;;;22.10;53.00;;;;;;4927181;28;90342;-94
2023/04/27 15:39:55;;;;;;;10.65;4.68;;;22.10;53.00;;;;;;4942437;28;87911;-94
2023/04/27 15:42:21;;;;;;;8.48;4.90;;;22.00;53.40;;;;;;4932292;28;89106;-96
2023/04/27 15:44:47;;;;;;;12.23;5.13;;;22.10;53.50;;;;;;4939403;28;89294;-96
2023/04/27 15:47:14;;;;;;;10.93;4.55;;;22.10;53.70;;;;;;4935550;28;90279;-96
2023/04/27 15:49:40;;;;;;;11.70;5.22;;;22.00;53.80;;;;;;4935809;28;86836;-96
2023/04/27 15:52:09;;;;;;;10.18;4.10;;;22.00;53.80;;;;;;4943561;28;88479;-96
2023/04/27 15:54:37;;;;;;;9.52;4.35;;;22.00;54.10;;;;;;4948860;28;88996;-96
2023/04/27 15:57:03;;;;;;;12.40;4.70;;;22.00;54.40;;;;;;4947177;28;88968;-95
2023/04/27 15:59:40;;;;;;;7.60;4.18;;;22.00;54.40;;;;;;4949847;28;86561;-96
2023/04/27 16:02:06;;;;;;;9.52;4.57;;;22.10;54.10;;;;;;4957090;28;89921;-96
2023/04/27 16:04:32;;;;;;;9.93;5.40;;;22.10;54.20;;;;;;4946262;28;90140;-95
2023/04/27 16:06:58;;;;;;;10.45;4.25;;;22.10;54.50;;;;;;4947368;28;89901;-96
2023/04/27 16:09:24;;;;;;;9.48;4.13;;;22.10;55.10;;;;;;4947488;28;86597;-96
2023/04/27 16:11:56;;;;;;;9.82;4.63;;;22.10;54.30;;;;;;4948248;28;87618;-94
2023/04/27 16:14:22;;;;;;;7.88;3.95;;;22.10;54.50;;;;;;4947437;28;89735;-95
2023/04/27 16:16:50;;;;;;;11.70;4.18;;;22.10;54.40;;;;;;4944205;28;88981;-96
2023/04/27 16:19:18;;;;;;;8.07;4.53;;;22.10;54.50;;;;;;4950525;28;86001;-96
2023/04/27 16:21:47;;;;;;;11.63;4.50;;;22.10;54.60;;;;;;4946036;28;88287;-94
2023/04/27 16:24:12;;;;;;;7.70;4.30;;;22.10;54.60;;;;;;4942041;28;89072;-96
2023/04/27 16:27:06;;;;;;;8.30;4.82;;;22.10;54.70;;;;;;4948643;28;90008;-96
2023/04/27 16:29:35;;;;;;;9.20;4.75;;;22.10;54.60;;;;;;4933591;28;87775;-96
2023/04/27 16:32:04;;;;;;;5.15;3.72;;;22.10;54.70;;;;;;4960021;28;88222;-96
2023/04/27 16:37:27;;;;;;;6.68;3.80;;;22.10;54.70;;;;;;4959950;28;86139;-96
2023/04/27 16:43:11;;;;;;;7.70;4.38;;;22.10;55.00;;;;;;4908740;28;86200;-95
2023/04/27 16:46:03;;;;;;;9.93;4.47;;;22.00;55.20;;;;;;4900145;28;88620;-95
2023/04/27 16:48:39;;;;;;;6.00;4.00;;;22.10;55.30;;;;;;4897609;28;89169;-96
2023/04/27 16:51:19;;;;;;;6.78;3.63;;;22.20;55.00;;;;;;4905135;28;86646;-96
2023/04/27 16:53:49;;;;;;;7.60;3.90;;;22.20;54.80;;;;;;4893464;28;86892;-96
2023/04/27 16:56:29;;;;;;;8.20;3.90;;;22.20;54.80;;;;;;4900049;28;90042;-96
2023/04/27 16:59:11;;;;;;;9.68;4.00;;;22.20;54.80;;;;;;4901640;28;88758;-95
2023/04/27 17:01:37;;;;;;;8.90;4.22;;;22.30;54.70;;;;;;4916138;23;87693;-90
2023/04/27 17:07:32;;;;;;;;;;;22.50;55.00;;;;;;4921896;28;88222;-89
2023/04/27 17:10:08;;;;;;;6.82;4.18;;;22.60;53.90;;;;;;4926944;28;88633;-95
2023/04/27 17:12:35;;;;;;;9.43;3.60;;;22.70;54.10;;;;;;4926002;28;87932;-90
2023/04/27 17:15:01;;;;;;;7.07;3.80;;;22.80;54.10;;;;;;4919293;28;89452;-90
2023/04/27 17:17:29;;;;;;;7.90;3.85;;;22.90;54.30;;;;;;4922238;28;89795;-93
2023/04/27 17:19:55;;;;;;;7.33;3.97;;;22.90;54.20;;;;;;4930982;28;89638;-94
2023/04/27 17:22:20;;;;;;;7.43;3.40;;;22.90;54.20;;;;;;4933994;28;88642;-91
2023/04/27 17:24:46;;;;;;;6.55;3.40;;;22.80;54.20;;;;;;4922831;28;88220;-89
2023/04/27 17:27:12;;;;;;;6.68;4.00;;;22.80;54.40;;;;;;4917774;28;88886;-90
2023/04/27 17:29:39;;;;;;;8.25;3.75;;;22.80;54.40;;;;;;4924101;28;90281;-89
2023/04/27 17:32:04;;;;;;;7.82;3.45;;;22.80;54.30;;;;;;4919139;28;87644;-89
2023/04/27 17:34:30;;;;;;;5.88;3.78;;;22.80;54.60;;;;;;4923849;28;89351;-92
2023/04/27 17:36:57;;;;;;;6.13;3.35;;;22.80;54.60;;;;;;4921401;28;88875;-91
2023/04/27 17:39:24;;;;;;;5.55;3.53;;;22.70;54.60;;;;;;4923457;28;90139;-94
2023/04/27 17:41:50;;;;;;;7.10;3.60;;;22.70;54.80;;;;;;4938041;28;87584;-90
2023/04/27 17:44:16;;;;;;;9.50;3.88;;;22.70;54.70;;;;;;4923699;28;88236;-89
2023/04/27 17:46:48;;;;;;;6.65;3.75;;;22.70;54.90;;;;;;4921134;28;91261;-91
2023/04/27 17:49:15;;;;;;;6.63;3.53;;;22.70;54.90;;;;;;4916596;28;91043;-94
2023/04/27 17:51:42;;;;;;;6.75;3.60;;;22.70;54.90;;;;;;4922814;28;87586;-88
2023/04/27 17:54:08;;;;;;;7.20;3.20;;;22.70;55.00;;;;;;4918597;28;89040;-94
2023/04/27 17:56:33;;;;;;;5.03;3.22;;;22.70;54.70;;;;;;4920022;28;90405;-91
2023/04/27 17:59:00;;;;;;;6.80;3.33;;;22.70;54.90;;;;;;4921569;28;90130;-91
2023/04/27 18:01:26;;;;;;;6.50;3.53;;;22.70;54.80;;;;;;4935097;28;89440;-89
2023/04/27 18:03:51;;;;;;;5.05;3.20;;;22.70;54.80;;;;;;4919544;28;89320;-89
2023/04/27 18:06:20;;;;;;;4.43;3.17;;;22.70;54.80;;;;;;4917362;28;90679;-90
2023/04/27 18:08:46;;;;;;;5.73;3.77;;;22.80;54.90;;;;;;4920472;28;89832;-91
2023/04/27 18:11:12;;;;;;;8.57;3.90;;;22.80;54.80;;;;;;4934991;28;88632;-90
2023/04/27 18:13:38;;;;;;;6.25;3.53;;;22.80;54.90;;;;;;4918559;28;89398;-93
2023/04/27 18:16:04;;;;;;;5.15;3.28;;;22.80;54.80;;;;;;4922100;28;90540;-92
2023/04/27 18:18:30;;;;;;;7.50;3.60;;;22.80;54.90;;;;;;4923476;28;90350;-89
2023/04/27 18:20:55;;;;;;;4.25;3.22;;;22.90;55.10;;;;;;4933605;28;87212;-89
2023/04/27 18:23:21;;;;;;;5.13;2.70;;;22.90;55.00;;;;;;4936670;28;89110;-89
2023/04/27 18:25:47;;;;;;;5.30;2.92;;;22.90;55.00;;;;;;4919282;28;89550;-90
2023/04/27 18:28:13;;;;;;;7.50;3.47;;;22.90;55.00;;;;;;4919131;28;90613;-90
2023/04/27 18:30:38;;;;;;;7.30;3.13;;;22.90;55.00;;;;;;4919562;28;87591;-89
2023/04/27 18:33:04;;;;;;;8.05;4.10;;;22.90;54.90;;;;;;4919982;28;89952;-89
2023/04/27 18:35:30;;;;;;;7.68;3.42;;;22.90;55.00;;;;;;4936286;28;92154;-91
2023/04/27 18:37:55;;;;;;;5.03;3.03;;;22.90;55.00;;;;;;4919652;28;91015;-88
2023/04/27 18:40:22;;;;;;;10.52;3.10;;;22.90;55.20;;;;;;4916395;28;87899;-88
2023/04/27 18:42:47;;;;;;;5.38;3.03;;;22.90;55.30;;;;;;4919462;28;87815;-87
2023/04/27 18:45:14;;;;;;;4.63;3.35;;;22.90;55.10;;;;;;4917047;28;88442;-89
2023/04/27 18:47:39;;;;;;;5.93;3.42;;;22.90;55.30;;;;;;4918128;28;87505;-89
2023/04/27 18:50:07;;;;;;;4.55;2.80;;;22.80;55.20;;;;;;4918031;28;88749;-91
2023/04/27 18:52:33;;;;;;;4.57;2.80;;;22.90;55.40;;;;;;4919067;28;89187;-89
2023/04/27 18:54:58;;;;;;;7.78;3.15;;;22.90;55.30;;;;;;4916750;28;89921;-89
2023/04/27 18:57:25;;;;;;;7.15;3.47;;;22.90;55.50;;;;;;4920018;28;90005;-92
2023/04/27 18:59:51;;;;;;;6.75;3.33;;;22.80;55.30;;;;;;4919014;28;88534;-91
2023/04/27 19:02:16;;;;;;;8.25;3.13;;;22.80;55.10;;;;;;4942653;28;89583;-90
2023/04/27 19:04:42;;;;;;;5.05;3.28;;;22.90;55.30;;;;;;4936692;28;89582;-90
2023/04/27 19:07:08;;;;;;;5.80;3.00;;;22.90;55.40;;;;;;4938389;28;89243;-88
2023/04/27 19:09:33;;;;;;;4.65;3.40;;;22.90;55.60;;;;;;4939789;28;86980;-93
2023/04/27 19:11:59;;;;;;;5.68;3.03;;;22.90;55.70;;;;;;4935909;28;87641;-93
2023/04/27 19:14:25;;;;;;;5.97;3.42;;;22.90;55.70;;;;;;4935689;28;91272;-88
2023/04/27 19:16:51;;;;;;;5.57;3.15;;;22.90;55.70;;;;;;4950066;28;91075;-90
2023/04/27 19:19:16;;;;;;;5.97;3.08;;;22.90;55.90;;;;;;4937866;28;87401;-91
2023/04/27 19:21:42;;;;;;;3.85;2.92;;;22.90;56.00;;;;;;4938794;28;88625;-92
2023/04/27 19:24:09;;;;;;;5.35;3.05;;;22.90;55.90;;;;;;4940645;28;91667;-91
2023/04/27 19:26:35;;;;;;;7.63;3.75;;;22.90;55.90;;;;;;4937085;28;90782;-89
2023/04/27 19:29:01;;;;;;;5.28;3.22;;;23.00;56.10;;;;;;4935448;28;87144;-90
2023/04/27 19:31:27;;;;;;;5.95;3.22;;;22.90;56.00;;;;;;4940064;28;87798;-89
2023/04/27 19:33:52;;;;;;;4.10;2.67;;;23.00;56.00;;;;;;4940212;28;89189;-88
2023/04/27 19:36:18;;;;;;;4.45;3.30;;;22.90;56.10;;;;;;4938166;28;90405;-89
2023/04/27 19:38:44;;;;;;;7.07;3.50;;;23.00;56.20;;;;;;4934789;28;87426;-89
2023/04/27 19:41:12;;;;;;;4.20;2.90;;;22.90;56.10;;;;;;4938338;28;88992;-90
2023/04/27 19:43:41;;;;;;;8.07;3.17;;;22.90;56.20;;;;;;4955766;28;90045;-89
2023/04/27 19:46:07;;;;;;;4.93;3.00;;;23.00;56.30;;;;;;4939078;28;88938;-93
2023/04/27 19:48:32;;;;;;;7.63;3.25;;;22.90;56.20;;;;;;4935523;28;88772;-91
2023/04/27 19:50:58;;;;;;;5.32;3.00;;;22.90;56.20;;;;;;4936269;28;87764;-93
2023/04/27 19:53:24;;;;;;;8.32;3.20;;;22.90;56.20;;;;;;4939700;28;90659;-90
2023/04/27 19:55:50;;;;;;;3.75;3.13;;;23.00;56.20;;;;;;4937803;28;89723;-92
2023/04/27 19:58:16;;;;;;;4.38;2.70;;;22.90;56.20;;;;;;4938952;28;87593;-89
2023/04/27 20:00:42;;;;;;;3.75;2.70;;;23.00;56.10;;;;;;4939507;28;89643;-88